createdAt,value
2023-03-04T00:01:46.718Z,12.38
2023-03-04T00:05:56.138Z,11.95
2023-03-04T00:08:03.657Z,11.48
2023-03-04T00:10:09.909Z,12.85
2023-03-04T00:12:15.509Z,12.05
2023-03-04T00:14:20.304Z,12.20
2023-03-04T00:16:27.366Z,12.02
2023-03-04T00:18:35.128Z,12.18
2023-03-04T00:20:39.916Z,13.65
2023-03-04T00:22:44.699Z,13.07
2023-03-04T00:24:52.253Z,13.57
2023-03-04T00:26:57.024Z,13.38
2023-03-04T00:29:01.857Z,12.90
2023-03-04T00:31:06.880Z,12.20
2023-03-04T00:33:11.736Z,14.30
2023-03-04T00:35:16.494Z,14.15
2023-03-04T00:37:21.460Z,13.70
2023-03-04T00:39:26.252Z,12.55
2023-03-04T00:41:33.689Z,11.63
2023-03-04T00:43:38.535Z,13.07
2023-03-04T00:45:43.399Z,13.43
2023-03-04T00:47:48.190Z,12.27
2023-03-04T00:49:52.989Z,12.98
2023-03-04T00:51:57.863Z,13.60
2023-03-04T00:54:02.687Z,12.13
2023-03-04T00:56:08.209Z,12.80
2023-03-04T00:58:18.008Z,12.23
2023-03-04T01:00:23.671Z,13.20
2023-03-04T01:02:29.065Z,12.98
2023-03-04T01:04:33.882Z,11.13
2023-03-04T01:06:38.676Z,10.82
2023-03-04T01:08:44.421Z,12.18
2023-03-04T01:10:49.356Z,12.48
2023-03-04T01:12:54.166Z,12.68
2023-03-04T01:15:01.764Z,13.60
2023-03-04T01:17:06.674Z,12.02
2023-03-04T01:19:11.442Z,11.65
2023-03-04T01:21:16.810Z,12.35
2023-03-04T01:23:21.626Z,12.30
2023-03-04T01:25:26.552Z,13.23
2023-03-04T01:27:31.470Z,12.75
2023-03-04T01:29:36.226Z,12.70
2023-03-04T01:31:43.626Z,13.13
2023-03-04T01:33:48.405Z,12.38
2023-03-04T01:35:53.254Z,12.40
2023-03-04T01:37:58.248Z,12.95
2023-03-04T01:40:03.007Z,12.57
2023-03-04T01:42:07.905Z,11.15
2023-03-04T01:44:13.897Z,12.13
2023-03-04T01:46:18.863Z,11.18
2023-03-04T01:48:29.603Z,11.02
2023-03-04T01:50:36.810Z,11.35
2023-03-04T01:52:43.282Z,11.35
2023-03-04T01:54:48.080Z,11.15
2023-03-04T01:56:55.136Z,11.10
2023-03-04T01:59:11.977Z,10.13
2023-03-04T02:01:17.259Z,10.60
2023-03-04T02:03:23.013Z,10.57
2023-03-04T02:05:31.557Z,10.93
2023-03-04T02:07:36.617Z,10.60
2023-03-04T02:09:41.436Z,9.85
2023-03-04T02:11:49.246Z,9.48
2023-03-04T02:13:55.085Z,9.85
2023-03-04T02:15:59.934Z,10.45
2023-03-04T02:18:05.275Z,9.48
2023-03-04T02:20:21.201Z,10.52
2023-03-04T02:22:28.708Z,9.50
2023-03-04T02:24:38.968Z,9.85
2023-03-04T02:26:47.680Z,9.35
2023-03-04T02:28:55.096Z,9.82
2023-03-04T02:31:00.260Z,9.93
2023-03-04T02:33:05.152Z,9.60
2023-03-04T02:35:21.716Z,10.60
2023-03-04T02:37:26.674Z,9.15
2023-03-04T02:39:36.358Z,9.65
2023-03-04T02:41:44.421Z,9.82
2023-03-04T02:43:56.882Z,8.75
2023-03-04T02:46:04.296Z,10.43
2023-03-04T02:48:10.251Z,10.45
2023-03-04T02:50:15.530Z,10.30
2023-03-04T02:52:22.658Z,10.27
2023-03-04T02:54:27.865Z,9.75
2023-03-04T02:58:38.492Z,9.75
2023-03-04T03:00:46.460Z,9.82
2023-03-04T03:02:51.585Z,10.43
2023-03-04T03:04:56.806Z,9.35
2023-03-04T03:07:04.156Z,10.50
2023-03-04T03:09:10.237Z,9.82
2023-03-04T03:11:15.170Z,10.27
2023-03-04T03:13:19.996Z,10.25
2023-03-04T03:15:25.067Z,9.95
2023-03-04T03:19:39.611Z,9.55
2023-03-04T03:21:46.028Z,10.82
2023-03-04T03:23:50.865Z,10.90
2023-03-04T03:25:55.655Z,10.95
2023-03-04T03:28:00.410Z,10.75
2023-03-04T03:30:05.397Z,11.20
2023-03-04T03:32:10.606Z,11.23
2023-03-04T03:34:19.212Z,11.02
2023-03-04T03:36:25.680Z,12.80
2023-03-04T03:38:30.654Z,12.88
2023-03-04T03:40:35.673Z,13.48
2023-03-04T03:42:40.435Z,12.27
2023-03-04T03:44:45.344Z,12.95
2023-03-04T03:46:50.172Z,13.68
2023-03-04T03:48:54.977Z,13.65
2023-03-04T03:51:02.371Z,13.80
2023-03-04T03:53:07.325Z,13.55
2023-03-04T03:55:13.001Z,13.13
2023-03-04T03:57:17.852Z,14.85
2023-03-04T03:59:24.195Z,13.35
2023-03-04T04:01:29.017Z,13.73
2023-03-04T04:03:33.898Z,14.02
2023-03-04T04:05:38.694Z,12.43
2023-03-04T04:07:46.101Z,12.60
2023-03-04T04:09:50.864Z,12.55
2023-03-04T04:11:55.703Z,12.85
2023-03-04T04:14:00.515Z,13.85
2023-03-04T04:16:05.571Z,12.48
2023-03-04T04:20:15.713Z,12.20
2023-03-04T04:24:29.312Z,12.48
2023-03-04T04:26:34.108Z,12.20
2023-03-04T04:28:39.050Z,12.30
2023-03-04T04:30:44.124Z,12.13
2023-03-04T04:32:48.945Z,12.68
2023-03-04T04:34:53.715Z,12.73
2023-03-04T04:36:59.034Z,13.10
2023-03-04T04:41:22.687Z,12.68
2023-03-04T04:43:27.748Z,13.07
2023-03-04T04:45:34.708Z,13.48
2023-03-04T04:47:39.863Z,13.05
2023-03-04T04:49:44.737Z,14.23
2023-03-04T04:51:49.515Z,13.18
2023-03-04T04:53:54.362Z,13.07
2023-03-04T04:55:59.150Z,12.63
2023-03-04T04:58:08.825Z,13.90
2023-03-04T05:00:16.015Z,13.07
2023-03-04T05:02:21.061Z,13.52
2023-03-04T05:04:25.907Z,13.77
2023-03-04T05:06:30.847Z,12.93
2023-03-04T05:08:38.984Z,13.05
2023-03-04T05:10:43.754Z,14.18
2023-03-04T05:12:49.897Z,13.27
2023-03-04T05:14:57.317Z,13.98
2023-03-04T05:17:02.181Z,14.35
2023-03-04T05:19:06.986Z,14.20
2023-03-04T05:21:12.466Z,12.75
2023-03-04T05:23:17.258Z,11.80
2023-03-04T05:25:22.061Z,13.45
2023-03-04T05:27:26.923Z,13.90
2023-03-04T05:29:31.706Z,13.98
2023-03-04T05:31:39.283Z,12.95
2023-03-04T05:33:44.188Z,15.20
2023-03-04T05:35:50.612Z,13.85
2023-03-04T05:37:55.466Z,13.63
2023-03-04T05:40:00.269Z,14.55
2023-03-04T05:42:05.304Z,13.35
2023-03-04T05:46:16.959Z,14.00
2023-03-04T05:48:24.741Z,13.60
2023-03-04T05:50:29.805Z,14.45
2023-03-04T05:52:34.629Z,16.08
2023-03-04T05:54:39.528Z,15.80
2023-03-04T05:56:44.660Z,16.75
2023-03-04T06:00:54.625Z,13.57
2023-03-04T06:02:59.443Z,16.15
2023-03-04T06:05:07.258Z,14.82
2023-03-04T06:07:12.046Z,15.98
2023-03-04T06:09:17.065Z,14.65
2023-03-04T06:11:21.871Z,14.90
2023-03-04T06:13:26.914Z,17.48
2023-03-04T06:15:32.381Z,15.25
2023-03-04T06:17:37.297Z,16.42
2023-03-04T06:19:42.069Z,16.63
2023-03-04T06:21:49.484Z,15.95
2023-03-04T06:23:54.258Z,16.88
2023-03-04T06:26:00.627Z,16.55
2023-03-04T06:28:05.428Z,16.10
2023-03-04T06:30:12.652Z,16.42
2023-03-04T06:32:17.460Z,16.65
2023-03-04T06:34:22.476Z,15.32
2023-03-04T06:36:27.437Z,15.60
2023-03-04T06:38:34.873Z,15.68
2023-03-04T06:40:39.731Z,15.95
2023-03-04T06:42:45.039Z,16.35
2023-03-04T06:44:51.462Z,15.93
2023-03-04T06:46:56.594Z,14.77
2023-03-04T06:51:10.533Z,14.93
2023-03-04T06:53:16.273Z,15.80
2023-03-04T06:55:23.902Z,16.27
2023-03-04T06:57:28.735Z,16.10
2023-03-04T06:59:33.976Z,16.55
2023-03-04T07:03:43.377Z,17.52
2023-03-04T07:05:48.378Z,15.05
2023-03-04T07:07:53.412Z,16.50
2023-03-04T07:12:06.181Z,14.27
2023-03-04T07:14:10.947Z,15.32
2023-03-04T07:16:18.160Z,17.08
2023-03-04T07:18:23.008Z,16.15
2023-03-04T07:20:29.566Z,15.75
2023-03-04T07:22:36.902Z,15.82
2023-03-04T07:24:41.716Z,14.40
2023-03-04T07:26:46.462Z,16.75
2023-03-04T07:28:54.730Z,16.75
2023-03-04T07:30:59.510Z,14.80
2023-03-04T07:33:04.289Z,15.13
2023-03-04T07:35:10.328Z,15.13
2023-03-04T07:37:15.229Z,15.15
2023-03-04T07:39:20.052Z,16.38
2023-03-04T07:41:26.634Z,14.30
2023-03-04T07:43:31.487Z,15.27
2023-03-04T07:45:39.914Z,16.42
2023-03-04T07:47:45.142Z,14.63
2023-03-04T07:49:49.945Z,14.70
2023-03-04T07:51:54.747Z,14.57
2023-03-04T07:54:01.400Z,14.60
2023-03-04T07:56:06.845Z,14.35
2023-03-04T07:58:11.630Z,14.00
2023-03-04T08:00:19.422Z,13.90
2023-03-04T08:02:26.940Z,13.07
2023-03-04T08:04:31.862Z,15.00
2023-03-04T08:06:36.936Z,14.60
2023-03-04T08:08:43.070Z,14.57
2023-03-04T08:10:48.408Z,14.02
2023-03-04T08:14:57.797Z,14.75
2023-03-04T08:17:02.661Z,13.10
2023-03-04T08:19:10.862Z,12.93
2023-03-04T08:21:16.220Z,15.45
2023-03-04T08:23:21.600Z,14.23
2023-03-04T08:25:26.380Z,14.07
2023-03-04T08:27:33.506Z,15.75
2023-03-04T08:29:38.240Z,13.55
2023-03-04T08:31:46.846Z,15.43
2023-03-04T08:33:53.527Z,14.18
2023-03-04T08:36:00.955Z,14.98
2023-03-04T08:38:05.764Z,15.18
2023-03-04T08:40:12.206Z,13.75
2023-03-04T08:42:17.020Z,13.73
2023-03-04T08:44:22.004Z,13.60
2023-03-04T08:46:26.853Z,15.02
2023-03-04T08:48:31.678Z,14.55
2023-03-04T08:50:37.026Z,14.82
2023-03-04T08:52:44.433Z,15.95
2023-03-04T08:54:50.300Z,15.35
2023-03-04T08:56:55.109Z,15.15
2023-03-04T08:59:00.046Z,21.67
2023-03-04T09:01:05.755Z,19.33
2023-03-04T09:03:10.690Z,16.67
2023-03-04T09:05:18.230Z,17.88
2023-03-04T09:07:23.049Z,16.00
2023-03-04T09:09:30.717Z,17.65
2023-03-04T09:11:38.314Z,16.90
2023-03-04T09:13:43.626Z,15.90
2023-03-04T09:15:49.310Z,19.60
2023-03-04T09:17:54.233Z,30.95
2023-03-04T09:19:58.972Z,23.52
2023-03-04T09:22:03.817Z,19.58
2023-03-04T09:24:09.101Z,18.80
2023-03-04T09:26:24.258Z,16.10
2023-03-04T09:28:29.167Z,16.98
2023-03-04T09:30:34.185Z,16.15
2023-03-04T09:32:39.414Z,14.73
2023-03-04T09:36:48.916Z,15.98
2023-03-04T09:38:53.896Z,16.83
2023-03-04T09:41:10.624Z,16.70
2023-03-04T09:43:23.538Z,17.05
2023-03-04T09:45:33.159Z,16.98
2023-03-04T09:47:40.228Z,17.33
2023-03-04T09:49:48.544Z,17.40
2023-03-04T09:52:03.792Z,19.08
2023-03-04T09:54:10.754Z,17.67
2023-03-04T09:56:17.261Z,17.23
2023-03-04T09:58:36.483Z,16.48
2023-03-04T10:00:44.358Z,17.17
2023-03-04T10:03:02.765Z,16.90
2023-03-04T10:05:10.803Z,18.08
2023-03-04T10:07:21.609Z,17.10
2023-03-04T10:09:32.531Z,16.73
2023-03-04T10:11:43.706Z,15.23
2023-03-04T10:14:05.688Z,16.67
2023-03-04T10:16:18.469Z,16.73
2023-03-04T10:18:27.007Z,15.98
2023-03-04T10:20:41.847Z,16.35
2023-03-04T10:22:48.833Z,15.37
2023-03-04T10:25:00.668Z,15.85
2023-03-04T10:27:10.409Z,15.13
2023-03-04T10:29:19.840Z,16.17
2023-03-04T10:31:35.254Z,15.10
2023-03-04T10:33:42.174Z,15.70
2023-03-04T10:35:51.284Z,16.27
2023-03-04T10:37:56.555Z,15.38
2023-03-04T10:42:25.500Z,14.45
2023-03-04T10:44:34.719Z,15.88
2023-03-04T10:46:41.466Z,15.88
2023-03-04T10:48:46.724Z,15.20
2023-03-04T10:52:57.699Z,15.38
2023-03-04T10:55:05.325Z,14.38
2023-03-04T10:57:19.146Z,15.90
2023-03-04T10:59:41.893Z,14.50
2023-03-04T11:01:46.750Z,14.88
2023-03-04T11:03:52.269Z,14.93
2023-03-04T11:06:09.354Z,15.20
2023-03-04T11:08:22.362Z,14.70
2023-03-04T11:10:31.636Z,14.40
2023-03-04T11:12:37.798Z,15.38
2023-03-04T11:14:49.697Z,13.73
2023-03-04T11:16:59.821Z,14.38
2023-03-04T11:19:09.149Z,15.35
2023-03-04T11:21:20.433Z,14.00
2023-03-04T11:23:35.134Z,15.15
2023-03-04T11:25:44.906Z,13.90
2023-03-04T11:27:55.378Z,13.68
2023-03-04T11:30:16.249Z,15.50
2023-03-04T11:32:24.348Z,14.98
2023-03-04T11:34:40.324Z,13.75
2023-03-04T11:36:57.674Z,15.00
2023-03-04T11:39:04.768Z,15.30
2023-03-04T11:41:16.804Z,15.40
2023-03-04T11:43:27.486Z,16.35
2023-03-04T11:45:47.188Z,15.32
2023-03-04T11:48:03.347Z,16.30
2023-03-04T11:50:32.697Z,16.25
2023-03-04T11:52:56.133Z,15.75
2023-03-04T11:55:15.077Z,15.38
2023-03-04T11:57:33.575Z,15.40
2023-03-04T11:59:59.590Z,16.38
2023-03-04T12:02:25.274Z,14.90
2023-03-04T12:04:47.168Z,15.18
2023-03-04T12:07:06.818Z,16.42
2023-03-04T12:09:35.382Z,15.63
2023-03-04T12:11:51.526Z,16.25
2023-03-04T12:14:16.485Z,15.65
2023-03-04T12:16:41.208Z,16.40
2023-03-04T12:19:01.451Z,15.30
2023-03-04T12:21:28.331Z,15.93
2023-03-04T12:23:48.177Z,13.88
2023-03-04T12:26:00.554Z,15.00
2023-03-04T12:28:23.644Z,16.48
2023-03-04T12:30:41.338Z,15.32
2023-03-04T12:32:55.418Z,14.50
2023-03-04T12:35:26.064Z,14.13
2023-03-04T12:37:47.374Z,15.15
2023-03-04T12:40:08.773Z,15.25
2023-03-04T12:42:24.151Z,14.60
2023-03-04T12:44:29.510Z,14.40
2023-03-04T12:46:45.107Z,14.32
2023-03-04T12:49:03.118Z,14.30
2023-03-04T12:51:28.257Z,13.65
2023-03-04T12:53:40.827Z,15.13
2023-03-04T12:55:48.048Z,14.15
2023-03-04T12:57:53.558Z,14.93
2023-03-04T13:00:02.966Z,15.07
2023-03-04T13:02:30.455Z,13.88
2023-03-04T13:04:47.085Z,14.68
2023-03-04T13:07:12.905Z,14.95
2023-03-04T13:09:25.406Z,14.70
2023-03-04T13:11:47.346Z,14.65
2023-03-04T13:14:05.808Z,13.68
2023-03-04T13:16:34.992Z,14.50
2023-03-04T13:18:41.034Z,14.15
2023-03-04T13:20:46.050Z,13.98
2023-03-04T13:22:56.983Z,13.68
2023-03-04T13:25:05.279Z,13.63
2023-03-04T13:27:40.090Z,14.63
2023-03-04T13:29:44.991Z,13.93
2023-03-04T13:32:07.212Z,15.00
2023-03-04T13:34:49.085Z,14.68
2023-03-04T13:36:59.773Z,14.63
2023-03-04T13:39:07.201Z,13.55
2023-03-04T13:41:17.451Z,13.50
2023-03-04T13:43:41.449Z,13.15
2023-03-04T13:45:46.328Z,14.80
2023-03-04T13:47:53.739Z,14.68
2023-03-04T13:50:29.990Z,17.52
2023-03-04T13:52:44.421Z,15.52
2023-03-04T13:54:49.216Z,13.32
2023-03-04T13:57:18.743Z,14.32
2023-03-04T13:59:32.976Z,13.38
2023-03-04T14:01:50.817Z,12.77
2023-03-04T14:03:58.837Z,13.77
2023-03-04T14:06:19.924Z,13.05
2023-03-04T14:08:28.525Z,14.65
2023-03-04T14:10:33.359Z,13.70
2023-03-04T14:12:40.317Z,14.20
2023-03-04T14:14:50.517Z,13.38
2023-03-04T14:16:59.041Z,13.55
2023-03-04T14:19:09.564Z,12.50
2023-03-04T14:21:17.121Z,12.95
2023-03-04T14:23:28.374Z,13.40
2023-03-04T14:25:36.666Z,13.95
2023-03-04T14:27:41.837Z,13.27
2023-03-04T14:29:46.644Z,15.63
2023-03-04T14:31:51.731Z,14.25
2023-03-04T14:36:08.356Z,12.65
2023-03-04T14:38:23.796Z,11.52
2023-03-04T14:40:32.937Z,13.80
2023-03-04T14:42:45.083Z,13.18
2023-03-04T14:44:52.607Z,12.15
2023-03-04T14:47:07.993Z,12.57
2023-03-04T14:49:16.323Z,13.20
2023-03-04T14:51:39.316Z,14.10
2023-03-04T14:53:56.913Z,13.77
2023-03-04T14:56:04.586Z,13.38
2023-03-04T14:58:11.125Z,13.02
2023-03-04T15:00:30.659Z,14.13
2023-03-04T15:02:42.018Z,12.23
2023-03-04T15:04:47.344Z,13.95
2023-03-04T15:06:56.581Z,12.90
2023-03-04T15:09:04.179Z,13.20
2023-03-04T15:11:10.680Z,13.05
2023-03-04T15:13:17.221Z,12.20
2023-03-04T15:15:38.235Z,12.02
2023-03-04T15:17:45.362Z,11.77
2023-03-04T15:20:01.489Z,12.23
2023-03-04T15:22:10.724Z,13.02
2023-03-04T15:24:16.356Z,12.77
2023-03-04T15:26:21.305Z,13.52
2023-03-04T15:28:27.683Z,12.73
2023-03-04T15:30:34.482Z,11.85
2023-03-04T15:32:39.336Z,13.07
2023-03-04T15:34:44.225Z,11.80
2023-03-04T15:36:51.603Z,12.73
2023-03-04T15:38:59.160Z,12.20
2023-03-04T15:41:03.977Z,12.27
2023-03-04T15:43:10.161Z,12.15
2023-03-04T15:45:24.151Z,13.23
2023-03-04T15:47:29.036Z,13.65
2023-03-04T15:49:33.846Z,12.32
2023-03-04T15:51:39.087Z,12.73
2023-03-04T15:55:52.651Z,13.15
2023-03-04T15:58:00.249Z,12.30
2023-03-04T16:00:05.270Z,12.77
2023-03-04T16:02:23.212Z,12.55
2023-03-04T16:04:28.264Z,12.10
2023-03-04T16:06:38.197Z,12.95
2023-03-04T16:08:44.723Z,13.13
2023-03-04T16:10:53.138Z,13.90
2023-03-04T16:12:57.954Z,13.43
2023-03-04T16:15:05.029Z,12.95
2023-03-04T16:17:12.397Z,12.25
2023-03-04T16:19:17.165Z,13.35
2023-03-04T16:21:24.772Z,12.50
2023-03-04T16:23:29.658Z,11.73
2023-03-04T16:25:34.708Z,11.77
2023-03-04T16:27:42.911Z,11.45
2023-03-04T16:29:47.834Z,11.43
2023-03-04T16:31:52.638Z,12.43
2023-03-04T16:33:57.526Z,11.48
2023-03-04T16:36:04.126Z,11.25
2023-03-04T16:38:16.115Z,11.32
2023-03-04T16:40:23.534Z,12.32
2023-03-04T16:42:28.334Z,13.15
2023-03-04T16:44:37.563Z,11.18
2023-03-04T16:46:42.799Z,11.48
2023-03-04T16:50:52.451Z,15.20
2023-03-04T16:52:59.082Z,14.10
2023-03-04T16:55:03.931Z,12.65
2023-03-04T16:57:09.311Z,12.68
2023-03-04T16:59:18.697Z,11.27
2023-03-04T17:01:27.706Z,10.60
2023-03-04T17:03:32.770Z,10.95
2023-03-04T17:05:37.604Z,11.10
2023-03-04T17:07:42.442Z,10.95
2023-03-04T17:09:47.876Z,11.05
2023-03-04T17:11:53.206Z,10.85
2023-03-04T17:16:04.354Z,12.27
2023-03-04T17:18:12.026Z,12.10
2023-03-04T17:20:18.528Z,11.20
2023-03-04T17:22:23.698Z,13.02
2023-03-04T17:24:29.613Z,10.63
2023-03-04T17:26:34.864Z,12.35
2023-03-04T17:28:39.937Z,11.55
2023-03-04T17:30:44.761Z,11.40
2023-03-04T17:32:49.664Z,11.73
2023-03-04T17:34:57.223Z,11.73
2023-03-04T17:37:02.516Z,11.73
2023-03-04T17:41:16.157Z,11.55
2023-03-04T17:43:21.754Z,10.13
2023-03-04T17:45:26.651Z,11.05
2023-03-04T17:47:36.072Z,10.20
2023-03-04T17:49:41.007Z,11.88
2023-03-04T17:51:48.400Z,10.85
2023-03-04T17:53:53.171Z,10.55
2023-03-04T17:56:00.189Z,11.30
2023-03-04T17:58:04.980Z,13.88
2023-03-04T18:00:11.470Z,11.13
2023-03-04T18:02:17.528Z,11.25
2023-03-04T18:04:22.435Z,12.20
2023-03-04T18:06:27.724Z,12.15
2023-03-04T18:08:37.238Z,13.38
2023-03-04T18:10:42.106Z,11.60
2023-03-04T18:12:47.499Z,14.05
2023-03-04T18:14:54.361Z,12.25
2023-03-04T18:16:59.225Z,12.70
2023-03-04T18:19:04.809Z,11.73
2023-03-04T18:21:09.956Z,12.23
2023-03-04T18:23:14.780Z,13.10
2023-03-04T18:25:22.409Z,13.20
2023-03-04T18:27:27.953Z,16.23
2023-03-04T18:29:34.276Z,15.82
2023-03-04T18:31:39.486Z,13.20
2023-03-04T18:35:48.892Z,10.88
2023-03-04T18:37:53.916Z,11.10
2023-03-04T18:39:58.721Z,10.35
2023-03-04T18:42:06.441Z,11.63
2023-03-04T18:44:11.740Z,11.25
2023-03-04T18:46:29.617Z,11.27
2023-03-04T18:48:38.999Z,10.50
2023-03-04T18:50:43.877Z,11.23
2023-03-04T18:52:49.205Z,10.52
2023-03-04T18:54:54.034Z,10.95
2023-03-04T18:57:02.773Z,9.73
2023-03-04T18:59:16.141Z,10.43
2023-03-04T19:01:23.132Z,11.13
2023-03-04T19:03:28.308Z,10.02
2023-03-04T19:05:38.261Z,11.48
2023-03-04T19:07:43.396Z,9.32
2023-03-04T19:09:48.228Z,10.57
2023-03-04T19:11:53.158Z,9.95
2023-03-04T19:13:58.168Z,10.20
2023-03-04T19:16:05.716Z,11.07
2023-03-04T19:18:10.719Z,10.32
2023-03-04T19:20:17.520Z,9.98
2023-03-04T19:22:22.320Z,12.30
2023-03-04T19:24:27.151Z,14.88
2023-03-04T19:26:32.036Z,11.13
2023-03-04T19:28:37.035Z,11.85
2023-03-04T19:30:42.861Z,12.60
2023-03-04T19:32:50.368Z,14.00
2023-03-04T19:34:55.119Z,12.25
2023-03-04T19:37:00.001Z,12.90
2023-03-04T19:39:04.841Z,13.30
2023-03-04T19:41:13.864Z,13.52
2023-03-04T19:43:18.880Z,10.85
2023-03-04T19:45:23.801Z,12.68
2023-03-04T19:47:28.753Z,11.48
2023-03-04T19:49:37.201Z,12.40
2023-03-04T19:51:42.283Z,12.05
2023-03-04T19:53:47.722Z,11.35
2023-03-04T19:55:53.862Z,12.30
2023-03-04T19:57:58.793Z,12.15
2023-03-04T20:00:07.431Z,12.30
2023-03-04T20:02:12.280Z,12.23
2023-03-04T20:04:19.807Z,11.45
2023-03-04T20:06:28.143Z,13.15
2023-03-04T20:08:32.942Z,11.52
2023-03-04T20:10:41.100Z,11.40
2023-03-04T20:12:45.886Z,13.75
2023-03-04T20:14:51.268Z,11.57
2023-03-04T20:16:56.246Z,14.02
2023-03-04T20:19:01.662Z,14.45
2023-03-04T20:21:07.353Z,12.52
2023-03-04T20:23:20.228Z,14.73
2023-03-04T20:25:25.369Z,11.95
2023-03-04T20:27:30.185Z,12.88
2023-03-04T20:29:34.974Z,11.77
2023-03-04T20:31:41.044Z,11.30
2023-03-04T20:33:47.716Z,11.65
2023-03-04T20:35:52.641Z,12.30
2023-03-04T20:37:57.493Z,11.60
2023-03-04T20:40:04.941Z,12.90
2023-03-04T20:42:09.733Z,13.18
2023-03-04T20:44:14.586Z,12.43
2023-03-04T20:46:34.653Z,12.95
2023-03-04T20:48:39.585Z,12.90
2023-03-04T20:50:44.624Z,11.95
2023-03-04T20:52:49.454Z,11.95
2023-03-04T20:54:54.303Z,16.50
2023-03-04T20:57:01.825Z,16.10
2023-03-04T20:59:08.916Z,14.55
2023-03-04T21:01:13.915Z,13.82
2023-03-04T21:03:19.326Z,13.65
2023-03-04T21:05:24.110Z,14.35
2023-03-04T21:07:29.055Z,14.90
2023-03-04T21:09:33.957Z,15.13
2023-03-04T21:11:40.828Z,13.23
2023-03-04T21:13:53.991Z,14.02
2023-03-04T21:15:59.742Z,11.93
2023-03-04T21:18:04.567Z,13.27
2023-03-04T21:20:10.968Z,14.07
2023-03-04T21:22:18.752Z,14.00
2023-03-04T21:24:25.619Z,13.18
2023-03-04T21:26:30.491Z,14.20
2023-03-04T21:28:35.552Z,16.67
2023-03-04T21:30:43.286Z,14.50
2023-03-04T21:32:48.219Z,14.90
2023-03-04T21:34:53.672Z,16.58
2023-03-04T21:36:58.558Z,16.85
2023-03-04T21:39:03.297Z,16.17
2023-03-04T21:41:08.211Z,16.75
2023-03-04T21:43:13.041Z,15.45
2023-03-04T21:45:17.875Z,17.02
2023-03-04T21:47:25.513Z,17.30
2023-03-04T21:49:31.038Z,17.55
2023-03-04T21:51:36.246Z,17.70
2023-03-04T21:53:41.137Z,17.67
2023-03-04T21:55:45.903Z,18.10
2023-03-04T21:57:50.970Z,18.50
2023-03-04T21:59:55.751Z,18.65
2023-03-04T22:02:00.614Z,18.75
2023-03-04T22:04:08.333Z,17.90
2023-03-04T22:06:15.026Z,17.67
2023-03-04T22:08:22.638Z,17.95
2023-03-04T22:10:27.587Z,17.80
2023-03-04T22:12:32.681Z,20.27
2023-03-04T22:14:37.472Z,17.63
2023-03-04T22:16:59.035Z,17.30
2023-03-04T22:19:03.929Z,19.10
2023-03-04T22:21:13.537Z,17.98
2023-03-04T22:23:20.997Z,17.67
2023-03-04T22:25:25.801Z,16.33
2023-03-04T22:27:30.789Z,19.05
2023-03-04T22:29:38.401Z,18.33
2023-03-04T22:31:43.225Z,18.25
2023-03-04T22:33:48.700Z,19.08
2023-03-04T22:35:53.686Z,17.33
2023-03-04T22:38:01.073Z,17.88
2023-03-04T22:40:06.318Z,17.60
2023-03-04T22:44:16.682Z,18.38
2023-03-04T22:46:24.694Z,17.63
2023-03-04T22:48:30.035Z,17.50
2023-03-04T22:52:41.264Z,19.33
2023-03-04T22:54:48.619Z,19.40
2023-03-04T22:56:53.422Z,18.73
2023-03-04T22:58:58.251Z,18.85
2023-03-04T23:01:03.265Z,19.17
2023-03-04T23:03:08.721Z,19.13
2023-03-04T23:05:14.529Z,18.65
2023-03-04T23:07:19.506Z,20.83
2023-03-04T23:09:24.291Z,19.95
2023-03-04T23:11:35.394Z,19.48
2023-03-04T23:13:40.562Z,19.80
2023-03-04T23:15:45.829Z,18.77
2023-03-04T23:17:50.649Z,19.23
2023-03-04T23:19:55.969Z,18.83
2023-03-04T23:24:09.558Z,20.02
2023-03-04T23:26:18.639Z,20.95
2023-03-04T23:28:26.028Z,21.83
2023-03-04T23:30:30.904Z,21.52
2023-03-04T23:32:35.913Z,19.85
2023-03-04T23:34:40.783Z,21.45
2023-03-04T23:36:45.829Z,22.08
2023-03-04T23:40:55.935Z,20.67
2023-03-04T23:43:00.775Z,21.10
2023-03-04T23:45:09.801Z,22.05
2023-03-04T23:47:14.591Z,23.45
2023-03-04T23:49:19.440Z,21.83
2023-03-04T23:51:26.622Z,22.63
2023-03-04T23:53:33.882Z,21.25
2023-03-04T23:55:38.718Z,24.10
2023-03-04T23:57:43.455Z,23.88
2023-03-04T23:59:48.232Z,23.85
